sensor_id;sensor_type;location;lat;lon;timestamp;P1;durP1;ratioP1;P2;durP2;ratioP2
17725;SDS011;8983;53.156;17.960;2023-07-13T00:02:25;23.90;;;6.23;;
17725;SDS011;8983;53.156;17.960;2023-07-13T00:04:54;49.30;;;6.87;;
17725;SDS011;8983;53.156;17.960;2023-07-13T00:07:23;8.60;;;5.50;;
17725;SDS011;8983;53.156;17.960;2023-07-13T00:09:51;7.67;;;5.70;;
17725;SDS011;8983;53.156;17.960;2023-07-13T00:12:24;8.47;;;5.60;;
17725;SDS011;8983;53.156;17.960;2023-07-13T00:14:53;6.37;;;5.77;;
17725;SDS011;8983;53.156;17.960;2023-07-13T00:17:23;8.63;;;6.00;;
17725;SDS011;8983;53.156;17.960;2023-07-13T00:19:51;6.40;;;5.80;;
17725;SDS011;8983;53.156;17.960;2023-07-13T00:22:19;7.10;;;5.60;;
17725;SDS011;8983;53.156;17.960;2023-07-13T00:24:49;14.03;;;5.43;;
17725;SDS011;8983;53.156;17.960;2023-07-13T00:27:18;17.23;;;6.37;;
17725;SDS011;8983;53.156;17.960;2023-07-13T00:29:46;18.20;;;6.53;;
17725;SDS011;8983;53.156;17.960;2023-07-13T00:32:14;7.17;;;5.43;;
17725;SDS011;8983;53.156;17.960;2023-07-13T00:34:42;7.90;;;5.87;;
17725;SDS011;8983;53.156;17.960;2023-07-13T00:37:11;6.00;;;5.40;;
17725;SDS011;8983;53.156;17.960;2023-07-13T00:39:39;10.67;;;5.53;;
17725;SDS011;8983;53.156;17.960;2023-07-13T00:42:09;8.90;;;6.07;;
17725;SDS011;8983;53.156;17.960;2023-07-13T00:44:37;6.27;;;5.50;;
17725;SDS011;8983;53.156;17.960;2023-07-13T00:47:06;9.23;;;5.60;;
17725;SDS011;8983;53.156;17.960;2023-07-13T00:49:34;8.80;;;5.90;;
17725;SDS011;8983;53.156;17.960;2023-07-13T00:52:04;6.50;;;5.30;;
17725;SDS011;8983;53.156;17.960;2023-07-13T00:54:35;6.63;;;5.80;;
17725;SDS011;8983;53.156;17.960;2023-07-13T00:57:06;9.20;;;6.30;;
17725;SDS011;8983;53.156;17.960;2023-07-13T00:59:39;7.00;;;5.90;;
17725;SDS011;8983;53.156;17.960;2023-07-13T01:02:09;7.40;;;6.10;;
17725;SDS011;8983;53.156;17.960;2023-07-13T01:04:38;7.50;;;6.00;;
17725;SDS011;8983;53.156;17.960;2023-07-13T01:07:10;9.98;;;5.78;;
17725;SDS011;8983;53.156;17.960;2023-07-13T01:09:39;9.03;;;5.33;;
17725;SDS011;8983;53.156;17.960;2023-07-13T01:12:09;6.03;;;5.23;;
17725;SDS011;8983;53.156;17.960;2023-07-13T01:14:38;6.80;;;5.37;;
17725;SDS011;8983;53.156;17.960;2023-07-13T01:17:08;9.90;;;5.93;;
17725;SDS011;8983;53.156;17.960;2023-07-13T01:19:39;6.37;;;5.77;;
17725;SDS011;8983;53.156;17.960;2023-07-13T01:22:11;7.63;;;5.77;;
17725;SDS011;8983;53.156;17.960;2023-07-13T01:24:41;6.97;;;6.13;;
17725;SDS011;8983;53.156;17.960;2023-07-13T01:27:12;6.87;;;5.03;;
17725;SDS011;8983;53.156;17.960;2023-07-13T01:29:43;7.93;;;6.13;;
17725;SDS011;8983;53.156;17.960;2023-07-13T01:32:16;8.10;;;6.13;;
17725;SDS011;8983;53.156;17.960;2023-07-13T01:34:51;6.70;;;6.00;;
17725;SDS011;8983;53.156;17.960;2023-07-13T01:37:22;8.93;;;5.67;;
17725;SDS011;8983;53.156;17.960;2023-07-13T01:39:51;6.23;;;5.63;;
17725;SDS011;8983;53.156;17.960;2023-07-13T01:42:20;7.97;;;5.43;;
17725;SDS011;8983;53.156;17.960;2023-07-13T01:44:48;6.40;;;5.60;;
17725;SDS011;8983;53.156;17.960;2023-07-13T01:47:16;6.37;;;5.47;;
17725;SDS011;8983;53.156;17.960;2023-07-13T01:49:44;7.50;;;5.57;;
17725;SDS011;8983;53.156;17.960;2023-07-13T01:52:13;8.10;;;6.10;;
17725;SDS011;8983;53.156;17.960;2023-07-13T01:54:43;5.93;;;5.37;;
17725;SDS011;8983;53.156;17.960;2023-07-13T01:57:11;6.37;;;5.67;;
17725;SDS011;8983;53.156;17.960;2023-07-13T01:59:39;6.67;;;6.07;;
17725;SDS011;8983;53.156;17.960;2023-07-13T02:02:07;6.77;;;5.97;;
17725;SDS011;8983;53.156;17.960;2023-07-13T02:04:36;7.47;;;6.17;;
17725;SDS011;8983;53.156;17.960;2023-07-13T02:07:04;7.03;;;5.73;;
17725;SDS011;8983;53.156;17.960;2023-07-13T02:09:32;6.30;;;5.67;;
17725;SDS011;8983;53.156;17.960;2023-07-13T02:12:02;6.37;;;5.70;;
17725;SDS011;8983;53.156;17.960;2023-07-13T02:14:31;6.97;;;6.27;;
17725;SDS011;8983;53.156;17.960;2023-07-13T02:16:59;7.43;;;5.77;;
17725;SDS011;8983;53.156;17.960;2023-07-13T02:19:27;6.70;;;6.10;;
17725;SDS011;8983;53.156;17.960;2023-07-13T02:21:55;6.93;;;6.23;;
17725;SDS011;8983;53.156;17.960;2023-07-13T02:24:23;6.07;;;5.50;;
17725;SDS011;8983;53.156;17.960;2023-07-13T02:26:51;6.20;;;5.47;;
17725;SDS011;8983;53.156;17.960;2023-07-13T02:29:21;6.87;;;6.03;;
17725;SDS011;8983;53.156;17.960;2023-07-13T02:31:49;7.33;;;6.10;;
17725;SDS011;8983;53.156;17.960;2023-07-13T02:34:17;8.00;;;5.80;;
17725;SDS011;8983;53.156;17.960;2023-07-13T02:36:45;6.90;;;6.20;;
17725;SDS011;8983;53.156;17.960;2023-07-13T02:39:13;8.03;;;6.03;;
17725;SDS011;8983;53.156;17.960;2023-07-13T02:41:41;6.63;;;6.03;;
17725;SDS011;8983;53.156;17.960;2023-07-13T02:44:12;10.07;;;6.50;;
17725;SDS011;8983;53.156;17.960;2023-07-13T02:46:42;8.60;;;6.53;;
17725;SDS011;8983;53.156;17.960;2023-07-13T02:49:10;6.73;;;6.03;;
17725;SDS011;8983;53.156;17.960;2023-07-13T02:51:38;6.80;;;5.90;;
17725;SDS011;8983;53.156;17.960;2023-07-13T02:54:06;5.67;;;4.97;;
17725;SDS011;8983;53.156;17.960;2023-07-13T02:56:34;6.80;;;6.10;;
17725;SDS011;8983;53.156;17.960;2023-07-13T02:59:05;6.87;;;5.80;;
17725;SDS011;8983;53.156;17.960;2023-07-13T03:01:33;8.03;;;6.33;;
17725;SDS011;8983;53.156;17.960;2023-07-13T03:04:03;7.03;;;6.33;;
17725;SDS011;8983;53.156;17.960;2023-07-13T03:06:32;7.67;;;6.13;;
17725;SDS011;8983;53.156;17.960;2023-07-13T03:09:00;7.83;;;6.60;;
17725;SDS011;8983;53.156;17.960;2023-07-13T03:11:30;6.43;;;5.83;;
17725;SDS011;8983;53.156;17.960;2023-07-13T03:13:58;6.03;;;5.47;;
17725;SDS011;8983;53.156;17.960;2023-07-13T03:16:26;7.23;;;5.53;;
17725;SDS011;8983;53.156;17.960;2023-07-13T03:18:54;8.53;;;5.83;;
17725;SDS011;8983;53.156;17.960;2023-07-13T03:21:24;7.97;;;6.00;;
17725;SDS011;8983;53.156;17.960;2023-07-13T03:23:52;8.30;;;6.20;;
17725;SDS011;8983;53.156;17.960;2023-07-13T03:26:20;7.97;;;6.60;;
17725;SDS011;8983;53.156;17.960;2023-07-13T03:28:48;7.40;;;6.70;;
17725;SDS011;8983;53.156;17.960;2023-07-13T03:31:17;7.00;;;6.30;;
17725;SDS011;8983;53.156;17.960;2023-07-13T03:33:47;7.07;;;6.37;;
17725;SDS011;8983;53.156;17.960;2023-07-13T03:36:16;7.43;;;6.30;;
17725;SDS011;8983;53.156;17.960;2023-07-13T03:38:48;8.50;;;6.97;;
17725;SDS011;8983;53.156;17.960;2023-07-13T03:41:18;7.03;;;6.33;;
17725;SDS011;8983;53.156;17.960;2023-07-13T03:43:46;7.63;;;6.57;;
17725;SDS011;8983;53.156;17.960;2023-07-13T03:46:15;7.37;;;6.67;;
17725;SDS011;8983;53.156;17.960;2023-07-13T03:48:44;8.20;;;7.40;;
17725;SDS011;8983;53.156;17.960;2023-07-13T03:51:13;9.00;;;6.70;;
17725;SDS011;8983;53.156;17.960;2023-07-13T03:53:44;8.33;;;7.43;;
17725;SDS011;8983;53.156;17.960;2023-07-13T03:56:14;8.40;;;7.07;;
17725;SDS011;8983;53.156;17.960;2023-07-13T03:58:45;8.03;;;7.23;;
17725;SDS011;8983;53.156;17.960;2023-07-13T04:01:15;7.60;;;6.80;;
17725;SDS011;8983;53.156;17.960;2023-07-13T04:03:44;8.17;;;7.10;;
17725;SDS011;8983;53.156;17.960;2023-07-13T04:06:14;9.73;;;7.90;;
17725;SDS011;8983;53.156;17.960;2023-07-13T04:08:48;9.47;;;7.87;;
17725;SDS011;8983;53.156;17.960;2023-07-13T04:11:19;11.00;;;7.37;;
17725;SDS011;8983;53.156;17.960;2023-07-13T04:13:49;7.93;;;7.13;;
17725;SDS011;8983;53.156;17.960;2023-07-13T04:16:18;7.97;;;7.17;;
17725;SDS011;8983;53.156;17.960;2023-07-13T04:18:47;11.97;;;7.53;;
17725;SDS011;8983;53.156;17.960;2023-07-13T04:21:16;8.27;;;7.00;;
17725;SDS011;8983;53.156;17.960;2023-07-13T04:23:44;7.90;;;7.10;;
17725;SDS011;8983;53.156;17.960;2023-07-13T04:26:12;8.93;;;7.47;;
17725;SDS011;8983;53.156;17.960;2023-07-13T04:28:42;7.73;;;7.00;;
17725;SDS011;8983;53.156;17.960;2023-07-13T04:31:10;8.43;;;7.40;;
17725;SDS011;8983;53.156;17.960;2023-07-13T04:33:38;7.93;;;7.00;;
17725;SDS011;8983;53.156;17.960;2023-07-13T04:36:06;8.27;;;7.37;;
17725;SDS011;8983;53.156;17.960;2023-07-13T04:38:36;9.87;;;7.70;;
17725;SDS011;8983;53.156;17.960;2023-07-13T04:41:05;8.60;;;7.47;;
17725;SDS011;8983;53.156;17.960;2023-07-13T04:43:35;10.63;;;7.83;;
17725;SDS011;8983;53.156;17.960;2023-07-13T04:46:05;11.00;;;8.07;;
17725;SDS011;8983;53.156;17.960;2023-07-13T04:48:35;9.13;;;8.23;;
17725;SDS011;8983;53.156;17.960;2023-07-13T04:51:03;11.97;;;8.07;;
17725;SDS011;8983;53.156;17.960;2023-07-13T04:53:32;9.07;;;7.70;;
17725;SDS011;8983;53.156;17.960;2023-07-13T04:56:01;9.13;;;8.00;;
17725;SDS011;8983;53.156;17.960;2023-07-13T04:58:30;8.13;;;7.37;;
17725;SDS011;8983;53.156;17.960;2023-07-13T05:01:01;8.63;;;6.83;;
17725;SDS011;8983;53.156;17.960;2023-07-13T05:03:32;43.83;;;25.40;;
17725;SDS011;8983;53.156;17.960;2023-07-13T05:06:02;33.80;;;21.80;;
17725;SDS011;8983;53.156;17.960;2023-07-13T05:08:31;29.90;;;19.83;;
17725;SDS011;8983;53.156;17.960;2023-07-13T05:11:00;22.57;;;18.73;;
17725;SDS011;8983;53.156;17.960;2023-07-13T05:13:28;20.83;;;15.90;;
17725;SDS011;8983;53.156;17.960;2023-07-13T05:15:57;16.90;;;13.67;;
17725;SDS011;8983;53.156;17.960;2023-07-13T05:18:27;14.80;;;11.27;;
17725;SDS011;8983;53.156;17.960;2023-07-13T05:21:01;10.43;;;8.73;;
17725;SDS011;8983;53.156;17.960;2023-07-13T05:23:31;10.50;;;9.40;;
17725;SDS011;8983;53.156;17.960;2023-07-13T05:26:00;11.57;;;8.83;;
17725;SDS011;8983;53.156;17.960;2023-07-13T05:28:34;9.23;;;7.77;;
17725;SDS011;8983;53.156;17.960;2023-07-13T05:31:02;8.80;;;7.90;;
17725;SDS011;8983;53.156;17.960;2023-07-13T05:33:31;9.87;;;8.10;;
17725;SDS011;8983;53.156;17.960;2023-07-13T05:36:00;9.70;;;6.18;;
17725;SDS011;8983;53.156;17.960;2023-07-13T05:38:28;6.97;;;5.30;;
17725;SDS011;8983;53.156;17.960;2023-07-13T05:40:56;8.90;;;4.72;;
17725;SDS011;8983;53.156;17.960;2023-07-13T05:43:27;8.30;;;5.18;;
17725;SDS011;8983;53.156;17.960;2023-07-13T05:45:55;8.70;;;5.32;;
17725;SDS011;8983;53.156;17.960;2023-07-13T05:48:24;8.57;;;5.67;;
17725;SDS011;8983;53.156;17.960;2023-07-13T05:50:52;9.13;;;5.13;;
17725;SDS011;8983;53.156;17.960;2023-07-13T05:53:22;8.65;;;5.07;;
17725;SDS011;8983;53.156;17.960;2023-07-13T05:55:50;7.95;;;5.38;;
17725;SDS011;8983;53.156;17.960;2023-07-13T05:58:21;9.00;;;5.30;;
17725;SDS011;8983;53.156;17.960;2023-07-13T06:00:58;10.20;;;5.50;;
17725;SDS011;8983;53.156;17.960;2023-07-13T06:03:28;7.03;;;4.82;;
17725;SDS011;8983;53.156;17.960;2023-07-13T06:05:56;8.85;;;4.78;;
17725;SDS011;8983;53.156;17.960;2023-07-13T06:08:28;5.25;;;4.75;;
17725;SDS011;8983;53.156;17.960;2023-07-13T06:11:01;6.43;;;5.10;;
17725;SDS011;8983;53.156;17.960;2023-07-13T06:13:30;7.70;;;5.03;;
17725;SDS011;8983;53.156;17.960;2023-07-13T06:15:58;9.03;;;5.30;;
17725;SDS011;8983;53.156;17.960;2023-07-13T06:18:26;7.03;;;4.40;;
17725;SDS011;8983;53.156;17.960;2023-07-13T06:20:54;5.63;;;3.80;;
17725;SDS011;8983;53.156;17.960;2023-07-13T06:23:22;5.55;;;4.18;;
17725;SDS011;8983;53.156;17.960;2023-07-13T06:25:52;9.15;;;4.10;;
17725;SDS011;8983;53.156;17.960;2023-07-13T06:28:20;6.10;;;3.65;;
17725;SDS011;8983;53.156;17.960;2023-07-13T06:30:48;4.47;;;3.65;;
17725;SDS011;8983;53.156;17.960;2023-07-13T06:33:16;5.25;;;3.58;;
17725;SDS011;8983;53.156;17.960;2023-07-13T06:35:44;12.35;;;3.55;;
17725;SDS011;8983;53.156;17.960;2023-07-13T06:38:12;8.13;;;3.58;;
17725;SDS011;8983;53.156;17.960;2023-07-13T06:40:41;6.07;;;3.88;;
17725;SDS011;8983;53.156;17.960;2023-07-13T06:43:10;5.75;;;3.88;;
17725;SDS011;8983;53.156;17.960;2023-07-13T06:45:41;6.75;;;3.50;;
17725;SDS011;8983;53.156;17.960;2023-07-13T06:48:12;6.50;;;3.90;;
17725;SDS011;8983;53.156;17.960;2023-07-13T06:50:40;8.30;;;3.83;;
17725;SDS011;8983;53.156;17.960;2023-07-13T06:53:09;10.00;;;4.15;;
17725;SDS011;8983;53.156;17.960;2023-07-13T06:55:38;6.43;;;3.95;;
17725;SDS011;8983;53.156;17.960;2023-07-13T06:58:06;7.60;;;3.88;;
17725;SDS011;8983;53.156;17.960;2023-07-13T07:00:36;5.47;;;3.83;;
17725;SDS011;8983;53.156;17.960;2023-07-13T07:03:06;9.10;;;3.63;;
17725;SDS011;8983;53.156;17.960;2023-07-13T07:05:35;9.50;;;3.60;;
17725;SDS011;8983;53.156;17.960;2023-07-13T07:08:03;10.68;;;3.65;;
17725;SDS011;8983;53.156;17.960;2023-07-13T07:10:31;4.28;;;3.65;;
17725;SDS011;8983;53.156;17.960;2023-07-13T07:13:01;4.85;;;3.50;;
17725;SDS011;8983;53.156;17.960;2023-07-13T07:15:29;6.30;;;3.85;;
17725;SDS011;8983;53.156;17.960;2023-07-13T07:17:59;7.70;;;4.35;;
17725;SDS011;8983;53.156;17.960;2023-07-13T07:20:27;5.10;;;3.42;;
17725;SDS011;8983;53.156;17.960;2023-07-13T07:22:56;3.85;;;2.97;;
17725;SDS011;8983;53.156;17.960;2023-07-13T07:25:25;4.68;;;3.22;;
17725;SDS011;8983;53.156;17.960;2023-07-13T07:27:53;7.20;;;3.65;;
17725;SDS011;8983;53.156;17.960;2023-07-13T07:30:24;7.97;;;3.38;;
17725;SDS011;8983;53.156;17.960;2023-07-13T07:32:55;6.53;;;3.00;;
17725;SDS011;8983;53.156;17.960;2023-07-13T07:35:26;5.13;;;2.80;;
17725;SDS011;8983;53.156;17.960;2023-07-13T07:37:58;3.92;;;2.40;;
17725;SDS011;8983;53.156;17.960;2023-07-13T07:40:26;6.25;;;2.63;;
17725;SDS011;8983;53.156;17.960;2023-07-13T07:42:57;6.22;;;2.38;;
17725;SDS011;8983;53.156;17.960;2023-07-13T07:45:26;3.08;;;2.58;;
17725;SDS011;8983;53.156;17.960;2023-07-13T07:47:54;7.57;;;2.80;;
17725;SDS011;8983;53.156;17.960;2023-07-13T07:50:27;8.02;;;2.83;;
17725;SDS011;8983;53.156;17.960;2023-07-13T07:52:55;5.18;;;3.03;;
17725;SDS011;8983;53.156;17.960;2023-07-13T07:55:23;4.90;;;2.97;;
17725;SDS011;8983;53.156;17.960;2023-07-13T07:57:56;4.93;;;2.70;;
17725;SDS011;8983;53.156;17.960;2023-07-13T08:00:27;12.60;;;3.58;;
17725;SDS011;8983;53.156;17.960;2023-07-13T08:03:10;6.22;;;3.00;;
17725;SDS011;8983;53.156;17.960;2023-07-13T08:05:43;3.30;;;3.00;;
17725;SDS011;8983;53.156;17.960;2023-07-13T08:08:31;6.38;;;2.70;;
17725;SDS011;8983;53.156;17.960;2023-07-13T08:11:01;6.40;;;3.38;;
17725;SDS011;8983;53.156;17.960;2023-07-13T08:13:50;5.40;;;2.55;;
17725;SDS011;8983;53.156;17.960;2023-07-13T08:16:21;4.57;;;2.85;;
17725;SDS011;8983;53.156;17.960;2023-07-13T08:18:50;5.80;;;3.35;;
17725;SDS011;8983;53.156;17.960;2023-07-13T08:21:20;2.85;;;2.60;;
17725;SDS011;8983;53.156;17.960;2023-07-13T08:23:48;6.57;;;2.70;;
17725;SDS011;8983;53.156;17.960;2023-07-13T08:26:16;5.00;;;2.60;;
17725;SDS011;8983;53.156;17.960;2023-07-13T08:28:44;4.75;;;2.53;;
17725;SDS011;8983;53.156;17.960;2023-07-13T08:31:12;4.00;;;2.50;;
17725;SDS011;8983;53.156;17.960;2023-07-13T08:33:41;4.47;;;2.40;;
17725;SDS011;8983;53.156;17.960;2023-07-13T08:36:09;6.75;;;2.47;;
17725;SDS011;8983;53.156;17.960;2023-07-13T08:38:39;4.90;;;2.42;;
17725;SDS011;8983;53.156;17.960;2023-07-13T08:41:11;3.63;;;2.58;;
17725;SDS011;8983;53.156;17.960;2023-07-13T08:43:41;2.83;;;1.90;;
17725;SDS011;8983;53.156;17.960;2023-07-13T08:46:13;2.53;;;1.67;;
17725;SDS011;8983;53.156;17.960;2023-07-13T08:48:46;3.38;;;1.80;;
17725;SDS011;8983;53.156;17.960;2023-07-13T08:51:22;3.05;;;1.70;;
17725;SDS011;8983;53.156;17.960;2023-07-13T08:53:58;2.60;;;1.85;;
17725;SDS011;8983;53.156;17.960;2023-07-13T08:56:30;2.65;;;1.77;;
17725;SDS011;8983;53.156;17.960;2023-07-13T08:59:00;7.13;;;1.80;;
17725;SDS011;8983;53.156;17.960;2023-07-13T09:01:45;4.18;;;2.03;;
17725;SDS011;8983;53.156;17.960;2023-07-13T09:04:34;8.65;;;1.88;;
17725;SDS011;8983;53.156;17.960;2023-07-13T09:07:11;3.00;;;1.90;;
17725;SDS011;8983;53.156;17.960;2023-07-13T09:09:48;2.85;;;1.90;;
17725;SDS011;8983;53.156;17.960;2023-07-13T09:12:24;5.20;;;1.80;;
17725;SDS011;8983;53.156;17.960;2023-07-13T09:14:58;3.50;;;1.80;;
17725;SDS011;8983;53.156;17.960;2023-07-13T09:17:32;4.22;;;2.10;;
17725;SDS011;8983;53.156;17.960;2023-07-13T09:20:04;4.07;;;1.80;;
17725;SDS011;8983;53.156;17.960;2023-07-13T09:22:43;2.90;;;2.03;;
17725;SDS011;8983;53.156;17.960;2023-07-13T09:25:18;4.07;;;2.03;;
17725;SDS011;8983;53.156;17.960;2023-07-13T09:27:53;4.10;;;2.10;;
17725;SDS011;8983;53.156;17.960;2023-07-13T09:30:29;3.33;;;1.98;;
17725;SDS011;8983;53.156;17.960;2023-07-13T09:33:01;4.80;;;2.30;;
17725;SDS011;8983;53.156;17.960;2023-07-13T09:35:30;3.50;;;1.80;;
17725;SDS011;8983;53.156;17.960;2023-07-13T09:38:01;2.10;;;1.90;;
17725;SDS011;8983;53.156;17.960;2023-07-13T09:40:42;3.25;;;1.80;;
17725;SDS011;8983;53.156;17.960;2023-07-13T09:43:18;3.38;;;2.10;;
17725;SDS011;8983;53.156;17.960;2023-07-13T09:45:48;5.10;;;2.08;;
17725;SDS011;8983;53.156;17.960;2023-07-13T09:48:17;2.80;;;1.75;;
17725;SDS011;8983;53.156;17.960;2023-07-13T09:50:45;3.70;;;2.00;;
17725;SDS011;8983;53.156;17.960;2023-07-13T09:53:14;4.05;;;2.28;;
17725;SDS011;8983;53.156;17.960;2023-07-13T09:55:46;3.30;;;1.70;;
17725;SDS011;8983;53.156;17.960;2023-07-13T09:58:19;2.50;;;1.60;;
17725;SDS011;8983;53.156;17.960;2023-07-13T10:00:56;2.97;;;2.05;;
17725;SDS011;8983;53.156;17.960;2023-07-13T10:03:26;2.50;;;1.95;;
17725;SDS011;8983;53.156;17.960;2023-07-13T10:05:57;3.05;;;1.80;;
17725;SDS011;8983;53.156;17.960;2023-07-13T10:08:32;1.83;;;1.55;;
17725;SDS011;8983;53.156;17.960;2023-07-13T10:11:09;5.18;;;1.67;;
17725;SDS011;8983;53.156;17.960;2023-07-13T10:13:40;2.40;;;1.67;;
17725;SDS011;8983;53.156;17.960;2023-07-13T10:16:10;2.15;;;1.60;;
17725;SDS011;8983;53.156;17.960;2023-07-13T10:18:39;3.47;;;1.98;;
17725;SDS011;8983;53.156;17.960;2023-07-13T10:21:13;2.28;;;1.80;;
17725;SDS011;8983;53.156;17.960;2023-07-13T10:23:47;6.43;;;1.60;;
17725;SDS011;8983;53.156;17.960;2023-07-13T10:26:21;3.45;;;1.80;;
17725;SDS011;8983;53.156;17.960;2023-07-13T10:28:53;2.38;;;1.80;;
17725;SDS011;8983;53.156;17.960;2023-07-13T10:31:23;1.90;;;1.58;;
17725;SDS011;8983;53.156;17.960;2023-07-13T10:33:52;3.92;;;1.58;;
17725;SDS011;8983;53.156;17.960;2023-07-13T10:36:24;2.33;;;1.70;;
17725;SDS011;8983;53.156;17.960;2023-07-13T10:38:59;3.45;;;1.60;;
17725;SDS011;8983;53.156;17.960;2023-07-13T10:41:32;2.75;;;1.20;;
17725;SDS011;8983;53.156;17.960;2023-07-13T10:44:04;2.33;;;1.58;;
17725;SDS011;8983;53.156;17.960;2023-07-13T10:46:37;1.65;;;1.33;;
17725;SDS011;8983;53.156;17.960;2023-07-13T10:49:05;3.47;;;1.60;;
17725;SDS011;8983;53.156;17.960;2023-07-13T10:51:35;2.17;;;1.35;;
17725;SDS011;8983;53.156;17.960;2023-07-13T10:54:11;2.28;;;1.45;;
17725;SDS011;8983;53.156;17.960;2023-07-13T10:56:48;2.40;;;1.60;;
17725;SDS011;8983;53.156;17.960;2023-07-13T10:59:20;4.80;;;1.80;;
17725;SDS011;8983;53.156;17.960;2023-07-13T11:01:56;2.15;;;1.63;;
17725;SDS011;8983;53.156;17.960;2023-07-13T11:04:26;1.25;;;1.17;;
17725;SDS011;8983;53.156;17.960;2023-07-13T11:06:57;2.85;;;1.50;;
17725;SDS011;8983;53.156;17.960;2023-07-13T11:09:37;3.40;;;1.45;;
17725;SDS011;8983;53.156;17.960;2023-07-13T11:12:10;6.65;;;1.70;;
17725;SDS011;8983;53.156;17.960;2023-07-13T11:15:01;5.50;;;1.70;;
17725;SDS011;8983;53.156;17.960;2023-07-13T11:17:35;3.53;;;1.70;;
17725;SDS011;8983;53.156;17.960;2023-07-13T11:20:10;2.00;;;1.42;;
17725;SDS011;8983;53.156;17.960;2023-07-13T11:22:51;2.10;;;1.60;;
17725;SDS011;8983;53.156;17.960;2023-07-13T11:25:21;3.83;;;1.52;;
17725;SDS011;8983;53.156;17.960;2023-07-13T11:33:56;2.65;;;1.50;;
17725;SDS011;8983;53.156;17.960;2023-07-13T11:36:29;3.90;;;1.67;;
17725;SDS011;8983;53.156;17.960;2023-07-13T11:39:04;3.70;;;1.60;;
17725;SDS011;8983;53.156;17.960;2023-07-13T11:41:43;4.82;;;1.80;;
17725;SDS011;8983;53.156;17.960;2023-07-13T11:44:15;2.33;;;1.95;;
17725;SDS011;8983;53.156;17.960;2023-07-13T11:46:46;4.13;;;1.98;;
17725;SDS011;8983;53.156;17.960;2023-07-13T11:49:18;2.10;;;1.83;;
17725;SDS011;8983;53.156;17.960;2023-07-13T11:51:50;3.72;;;2.20;;
17725;SDS011;8983;53.156;17.960;2023-07-13T11:54:25;2.90;;;1.65;;
17725;SDS011;8983;53.156;17.960;2023-07-13T11:56:57;2.90;;;2.15;;
17725;SDS011;8983;53.156;17.960;2023-07-13T11:59:30;3.13;;;1.90;;
17725;SDS011;8983;53.156;17.960;2023-07-13T12:01:59;2.88;;;1.85;;
17725;SDS011;8983;53.156;17.960;2023-07-13T12:04:29;3.53;;;1.90;;
17725;SDS011;8983;53.156;17.960;2023-07-13T12:07:03;2.30;;;1.70;;
17725;SDS011;8983;53.156;17.960;2023-07-13T12:09:33;2.67;;;1.90;;
17725;SDS011;8983;53.156;17.960;2023-07-13T12:12:03;2.38;;;1.90;;
17725;SDS011;8983;53.156;17.960;2023-07-13T12:14:38;3.50;;;1.90;;
17725;SDS011;8983;53.156;17.960;2023-07-13T12:17:09;1.95;;;1.75;;
17725;SDS011;8983;53.156;17.960;2023-07-13T12:19:46;2.00;;;1.80;;
17725;SDS011;8983;53.156;17.960;2023-07-13T12:22:16;3.63;;;1.90;;
17725;SDS011;8983;53.156;17.960;2023-07-13T12:24:46;2.63;;;1.80;;
17725;SDS011;8983;53.156;17.960;2023-07-13T12:27:18;3.28;;;1.65;;
17725;SDS011;8983;53.156;17.960;2023-07-13T12:29:51;2.28;;;1.80;;
17725;SDS011;8983;53.156;17.960;2023-07-13T12:32:21;5.60;;;1.83;;
17725;SDS011;8983;53.156;17.960;2023-07-13T12:34:52;2.60;;;1.73;;
17725;SDS011;8983;53.156;17.960;2023-07-13T12:37:23;2.05;;;1.48;;
17725;SDS011;8983;53.156;17.960;2023-07-13T12:39:51;2.38;;;1.70;;
17725;SDS011;8983;53.156;17.960;2023-07-13T12:42:21;1.75;;;1.60;;
17725;SDS011;8983;53.156;17.960;2023-07-13T12:44:56;2.03;;;1.63;;
17725;SDS011;8983;53.156;17.960;2023-07-13T12:47:26;2.25;;;1.60;;
17725;SDS011;8983;53.156;17.960;2023-07-13T12:49:56;3.55;;;1.88;;
17725;SDS011;8983;53.156;17.960;2023-07-13T12:52:27;3.63;;;1.90;;
17725;SDS011;8983;53.156;17.960;2023-07-13T12:54:58;2.75;;;1.73;;
17725;SDS011;8983;53.156;17.960;2023-07-13T12:57:37;4.32;;;1.90;;
17725;SDS011;8983;53.156;17.960;2023-07-13T13:00:18;1.90;;;1.80;;
17725;SDS011;8983;53.156;17.960;2023-07-13T13:02:52;3.13;;;1.95;;
17725;SDS011;8983;53.156;17.960;2023-07-13T13:05:42;3.42;;;1.90;;
17725;SDS011;8983;53.156;17.960;2023-07-13T13:08:11;2.78;;;2.17;;
17725;SDS011;8983;53.156;17.960;2023-07-13T13:10:40;2.95;;;1.70;;
17725;SDS011;8983;53.156;17.960;2023-07-13T13:13:08;1.70;;;1.60;;
17725;SDS011;8983;53.156;17.960;2023-07-13T13:15:37;4.78;;;1.70;;
17725;SDS011;8983;53.156;17.960;2023-07-13T13:18:09;2.95;;;2.03;;
17725;SDS011;8983;53.156;17.960;2023-07-13T13:20:43;1.85;;;1.70;;
17725;SDS011;8983;53.156;17.960;2023-07-13T13:23:12;1.83;;;1.67;;
17725;SDS011;8983;53.156;17.960;2023-07-13T13:25:44;5.95;;;2.42;;
17725;SDS011;8983;53.156;17.960;2023-07-13T13:28:14;1.83;;;1.63;;
17725;SDS011;8983;53.156;17.960;2023-07-13T13:30:45;1.75;;;1.60;;
17725;SDS011;8983;53.156;17.960;2023-07-13T13:33:16;1.95;;;1.73;;
17725;SDS011;8983;53.156;17.960;2023-07-13T13:35:46;3.58;;;1.80;;
17725;SDS011;8983;53.156;17.960;2023-07-13T13:38:15;1.88;;;1.60;;
17725;SDS011;8983;53.156;17.960;2023-07-13T13:40:46;2.75;;;1.63;;
17725;SDS011;8983;53.156;17.960;2023-07-13T13:43:15;2.08;;;1.50;;
17725;SDS011;8983;53.156;17.960;2023-07-13T13:45:45;1.73;;;1.40;;
17725;SDS011;8983;53.156;17.960;2023-07-13T13:48:15;2.83;;;1.42;;
17725;SDS011;8983;53.156;17.960;2023-07-13T13:50:45;2.00;;;1.45;;
17725;SDS011;8983;53.156;17.960;2023-07-13T13:53:14;2.15;;;1.50;;
17725;SDS011;8983;53.156;17.960;2023-07-13T13:55:42;1.52;;;1.42;;
17725;SDS011;8983;53.156;17.960;2023-07-13T13:58:10;1.60;;;1.33;;
17725;SDS011;8983;53.156;17.960;2023-07-13T14:00:39;1.63;;;1.38;;
17725;SDS011;8983;53.156;17.960;2023-07-13T14:03:10;1.65;;;1.42;;
17725;SDS011;8983;53.156;17.960;2023-07-13T14:05:42;2.10;;;1.33;;
17725;SDS011;8983;53.156;17.960;2023-07-13T14:08:12;2.10;;;1.40;;
17725;SDS011;8983;53.156;17.960;2023-07-13T14:10:41;1.40;;;1.30;;
17725;SDS011;8983;53.156;17.960;2023-07-13T14:13:14;2.40;;;1.55;;
17725;SDS011;8983;53.156;17.960;2023-07-13T14:15:45;3.42;;;1.52;;
17725;SDS011;8983;53.156;17.960;2023-07-13T14:18:15;1.38;;;1.27;;
17725;SDS011;8983;53.156;17.960;2023-07-13T14:20:45;1.30;;;1.10;;
17725;SDS011;8983;53.156;17.960;2023-07-13T14:23:13;3.88;;;1.42;;
17725;SDS011;8983;53.156;17.960;2023-07-13T14:25:42;3.13;;;1.10;;
17725;SDS011;8983;53.156;17.960;2023-07-13T14:28:15;1.40;;;1.30;;
17725;SDS011;8983;53.156;17.960;2023-07-13T14:30:50;2.03;;;1.20;;
17725;SDS011;8983;53.156;17.960;2023-07-13T14:33:20;1.52;;;1.08;;
17725;SDS011;8983;53.156;17.960;2023-07-13T14:35:49;3.25;;;1.20;;
17725;SDS011;8983;53.156;17.960;2023-07-13T14:38:19;1.42;;;1.20;;
17725;SDS011;8983;53.156;17.960;2023-07-13T14:40:48;1.48;;;1.13;;
17725;SDS011;8983;53.156;17.960;2023-07-13T14:43:16;1.40;;;1.17;;
17725;SDS011;8983;53.156;17.960;2023-07-13T14:45:46;1.30;;;1.17;;
17725;SDS011;8983;53.156;17.960;2023-07-13T14:48:16;1.90;;;1.30;;
17725;SDS011;8983;53.156;17.960;2023-07-13T14:50:49;2.13;;;1.10;;
17725;SDS011;8983;53.156;17.960;2023-07-13T14:53:21;1.60;;;1.13;;
17725;SDS011;8983;53.156;17.960;2023-07-13T14:55:49;1.30;;;1.20;;
17725;SDS011;8983;53.156;17.960;2023-07-13T14:58:18;2.30;;;1.30;;
17725;SDS011;8983;53.156;17.960;2023-07-13T15:00:46;1.30;;;1.20;;
17725;SDS011;8983;53.156;17.960;2023-07-13T15:03:18;1.90;;;1.33;;
17725;SDS011;8983;53.156;17.960;2023-07-13T15:05:50;1.30;;;1.20;;
17725;SDS011;8983;53.156;17.960;2023-07-13T15:08:19;1.33;;;1.20;;
17725;SDS011;8983;53.156;17.960;2023-07-13T15:10:47;3.65;;;1.30;;
17725;SDS011;8983;53.156;17.960;2023-07-13T15:13:16;2.50;;;1.00;;